Saint Just, United Kingdom
Current Conditions -  °F | °C
As of 11:50 AM on Friday 28 Nov 2014 (Local Time) from EGDR Reporting Station
Broken Clouds Broken Clouds  
Wind Chill: 55°   Ceiling: 1000
Heat Index: 55°   Visibility: 6mi
Dew Point: 52°   Wind: 28mph
Humidity: 88%   Direction: 70°ENE
Pressure: 29.38"   Gusts: 47mph
Location:  50.12°N, 5.7°W
Report Text: EGDR 281150Z 07024G41KT 9999 SCT008 BKN010 13/11 Q0995 GRN NOSIG
Loading
Personal Weather Stations






























Interactive Weather Map New forecast layout! Learn more

10-Day Weather Forecast

Advertisements
Track Severe Weather on mobile